This is the latest recevied weather packets stored in our database for station/object W4ZHA. If no packets are shown the sender has not sent any weather packets the latest 10 day(s).
| Time | Temp. | Humidity | Pressure | Rain* | Wind** | Luminosity | Snow |
|---|---|---|---|---|---|---|---|
| 1777571285 | 20.56° C | 49% | 1014.1 hPa | 0 mm | - | 485 W/m² | - |
| 1777570980 | 20° C | 51% | 1014.1 hPa | 0 mm | - | 489 W/m² | - |
| 1777570676 | 20° C | 49% | 1014.1 hPa | 0 mm | - | 459 W/m² | - |
| 1777570374 | 20.56° C | 49% | 1014.1 hPa | 0 mm | - | 447 W/m² | - |
| 1777570069 | 19.44° C | 52% | 1014.1 hPa | 0 mm | - | 459 W/m² | - |
| 1777569764 | 20° C | 51% | 1014.1 hPa | 0 mm | - | 446 W/m² | - |
| 1777569460 | 19.44° C | 53% | 1014.1 hPa | 0 mm | - | 461 W/m² | - |
| 1777569158 | 20° C | 52% | 1014.1 hPa | 0 mm | - | 465 W/m² | - |
| 1777568854 | 19.44° C | 56% | 1014.1 hPa | 0 mm | - | 464 W/m² | - |
| 1777568552 | 19.44° C | 53% | 1014.1 hPa | 0 mm | - | 398 W/m² | - |
| 1777568248 | 19.44° C | 53% | 1014.4 hPa | 0 mm | - | 454 W/m² | - |
| 1777567945 | 19.44° C | 55% | 1014.4 hPa | 0 mm | - | 434 W/m² | - |
| 1777567641 | 20° C | 55% | 1014.4 hPa | 0 mm | - | 402 W/m² | - |
| 1777567338 | 19.44° C | 56% | 1014.4 hPa | 0 mm | - | 421 W/m² | - |
| 1777567037 | 18.89° C | 56% | 1014.1 hPa | 0 mm | - | 343 W/m² | - |
| 1777566734 | 19.44° C | 56% | 1014.4 hPa | 0 mm | - | 335 W/m² | - |
| 1777566432 | 18.89° C | 57% | 1014.4 hPa | 0 mm | - | 349 W/m² | - |
| 1777566129 | 18.89° C | 56% | 1014.4 hPa | 0 mm | - | 372 W/m² | - |
| 1777565824 | 19.44° C | 57% | 1014.4 hPa | 0 mm | - | 349 W/m² | - |
| 1777565521 | 18.33° C | 58% | 1014.4 hPa | 0 mm | - | 379 W/m² | - |
| 1777565217 | 18.89° C | 58% | 1014.4 hPa | 0 mm | - | 381 W/m² | - |
| 1777564913 | 18.89° C | 57% | 1014.4 hPa | 0 mm | - | 377 W/m² | - |
| 1777564609 | 18.89° C | 59% | 1014.4 hPa | 0 mm | - | 378 W/m² | - |
| 1777564304 | 18.89° C | 59% | 1014.4 hPa | 0 mm | - | 310 W/m² | - |
| 1777564001 | 18.33° C | 60% | 1014.4 hPa | 0 mm | - | 359 W/m² | - |
* Rain latest hour (hover to see other rain measurements)
** Current wind speed in m/s (hover to see current wind gust speed)